Zhen Zhu Hai — VROT8 — position and weather

sailwx.info

Track history (hours):
 
Tides and Currents Weather Stations Pressure Air Temp Water Temp Dewpoint Dewpoint Depression Visibility Wind Speed Wind Dir Waves Ship Positions

Zhen Zhu Hai

Last reported at 2017-Sep-20 21:00 UTC. Time now 2017-Sep-20 22:12 UTC.
Position N 38°40' W 009°51'.

Length 180 m; draft 9.9 m.

Type: Cargo ship. MMSI: 477524900.

Date/timePositionNaut miles runAvg speedWind from/ knotsBaromVisibWave heightAir tempDewpointWater temp
2017-Sep-20 21:00N 38°40' W 009°51'611.5
2017-Sep-20 20:30N 38°35' W 009°48'611.3
2017-Sep-20 20:00N 38°30' W 009°47'611.7
2017-Sep-20 19:30N 38°24' W 009°45'611.8
2017-Sep-20 19:00N 38°18' W 009°43'611.9
2017-Sep-20 18:30N 38°12' W 009°42'611.7
2017-Sep-20 18:00N 38°07' W 009°40'611.7
2017-Sep-20 17:30N 38°01' W 009°39'611.7
2017-Sep-20 17:00N 37°55' W 009°38'611.6
2017-Sep-20 16:30N 37°49' W 009°36'611.1
2017-Sep-20 16:00N 37°44' W 009°35'611.1
2017-Sep-20 15:28N 37°38' W 009°33'511.8
2017-Sep-20 15:00N 37°33' W 009°32'1211.7
2017-Sep-20 13:59N 37°21' W 009°28'611.9
2017-Sep-20 13:30N 37°16' W 009°26'612.1
2017-Sep-20 13:00N 37°10' W 009°24'612.5
2017-Sep-20 12:30N 37°04' W 009°23'1012.7
2017-Sep-20 11:44N 36°54' W 009°20'412.5
2017-Sep-20 11:23N 36°51' W 009°17'512.5
2017-Sep-20 11:00N 36°47' W 009°12'812.1
2017-Sep-20 10:19N 36°43' W 009°03'412.1
2017-Sep-20 09:58N 36°42' W 008°58'612.5
2017-Sep-20 09:30N 36°40' W 008°52'612.7
2017-Sep-20 09:00N 36°37' W 008°44'712.7
2017-Sep-20 08:29N 36°35' W 008°37'612.9
2017-Sep-20 08:00N 36°33' W 008°29'23 9.7
2017-Sep-20 05:37N 36°27' W 008°02'413.3
2017-Sep-20 05:20N 36°25' W 007°57'413.3
2017-Sep-20 05:00N 36°24' W 007°52'4313.0
2017-Sep-20 01:44N 36°11' W 007°02'313.0
2017-Sep-20 01:30N 36°10' W 006°59'1613.2
2017-Sep-20 00:20N 36°05' W 006°40'1213.6
2017-Sep-19 23:27N 36°01' W 006°26'613.9
2017-Sep-19 22:59N 35°60' W 006°19'714.0
2017-Sep-19 22:29N 35°58' W 006°10'714.2
2017-Sep-19 22:00N 35°58' W 006°02'814.2
2017-Sep-19 21:28N 35°58' W 005°52'1313.2
2017-Sep-19 20:29N 35°58' W 005°36'510.9
2017-Sep-19 20:01N 35°59' W 005°30'5 9.3
2017-Sep-19 19:31N 36°00' W 005°25'4 8.6
2017-Sep-19 19:01N 36°01' W 005°19'5 9.7
2017-Sep-19 18:31N 36°02' W 005°13'21612.1
2017-Sep-19 00:39N 36°37' W 000°49'213.0
2017-Sep-19 00:30N 36°38' W 000°47'3812.6
2017-Sep-18 21:31N 36°44' W 000°00'012.4
2017-Sep-18 21:30N 36°44' W 000°00'612.5
2017-Sep-18 21:00N 36°45' E 000°08'612.5
2017-Sep-18 20:30N 36°46' E 000°15'1012.3
2017-Sep-18 19:39N 36°47' E 000°28'312.2
2017-Sep-18 19:26N 36°48' E 000°32'1512.4
2017-Sep-18 18:15N 36°51' E 000°49'512.4
2017-Sep-18 17:53N 36°52' E 000°55'512.3
2017-Sep-18 17:30N 36°52' E 001°01'612.1
2017-Sep-18 17:00N 36°53' E 001°08'612.2
2017-Sep-18 16:30N 36°54' E 001°16'812.4
2017-Sep-18 15:49N 36°55' E 001°26'13212.3
2017-Sep-18 05:05N 37°15' E 004°10'112.2
2017-Sep-18 05:00N 37°15' E 004°11'612.3
2017-Sep-18 04:30N 37°15' E 004°19'3012.7
2017-Sep-18 02:11N 37°19' E 004°56'313.0
2017-Sep-18 01:57N 37°19' E 004°60'612.9
2017-Sep-18 01:27N 37°20' E 005°08'612.8
2017-Sep-18 00:58N 37°20' E 005°15'29212.9
2017-Sep-17 02:20N 37°22' E 011°23'513.4
2017-Sep-17 01:59N 37°20' E 011°28'713.6
2017-Sep-17 01:29N 37°17' E 011°35'613.5
2017-Sep-17 01:00N 37°14' E 011°43'713.5
2017-Sep-17 00:30N 37°11' E 011°50'713.6
2017-Sep-17 00:00N 37°08' E 011°58'713.6
2017-Sep-16 23:30N 37°05' E 012°06'713.2
2017-Sep-16 22:58N 37°03' E 012°14'612.9
2017-Sep-16 22:30N 37°01' E 012°21'1712.7
2017-Sep-16 21:09N 36°56' E 012°42'212.7
2017-Sep-16 21:00N 36°56' E 012°44'612.9
2017-Sep-16 20:30N 36°54' E 012°52'713.0
2017-Sep-16 20:00N 36°52' E 012°60'612.9
2017-Sep-16 19:30N 36°50' E 013°07'612.9
2017-Sep-16 19:00N 36°48' E 013°15'612.8
2017-Sep-16 18:30N 36°46' E 013°23'612.6
2017-Sep-16 18:00N 36°44' E 013°30'612.4
2017-Sep-16 17:30N 36°42' E 013°37'612.5
2017-Sep-16 17:00N 36°40' E 013°45'612.7
2017-Sep-16 16:30N 36°38' E 013°52'612.8
2017-Sep-16 16:00N 36°35' E 013°60'612.6
2017-Sep-16 15:30N 36°34' E 014°07'612.4
2017-Sep-16 15:00N 36°32' E 014°14'612.7
2017-Sep-16 14:30N 36°30' E 014°22'713.0
2017-Sep-16 14:00N 36°28' E 014°30'612.9
2017-Sep-16 13:30N 36°26' E 014°37'612.7
2017-Sep-16 13:00N 36°24' E 014°45'612.7
2017-Sep-16 12:30N 36°22' E 014°52'612.7
2017-Sep-16 12:00N 36°20' E 015°00'612.6
2017-Sep-16 11:30N 36°19' E 015°08'612.8
2017-Sep-16 11:00N 36°19' E 015°16'713.4
2017-Sep-16 10:30N 36°19' E 015°24'713.8
2017-Sep-16 10:00N 36°19' E 015°33'713.9
2017-Sep-16 09:30N 36°20' E 015°41'714.0
2017-Sep-16 09:00N 36°19' E 015°50'713.9
2017-Sep-16 08:30N 36°19' E 015°59'713.6
2017-Sep-16 08:00N 36°19' E 016°07'713.4
2017-Sep-16 07:31N 36°19' E 016°15'713.3
2017-Sep-16 07:00N 36°19' E 016°24'613.2
2017-Sep-16 06:31N 36°19' E 016°32'713.3
2017-Sep-16 06:00N 36°19' E 016°40'713.3
2017-Sep-16 05:27N 36°20' E 016°49'713.3
2017-Sep-16 04:55N 36°19' E 016°58'613.4
2017-Sep-16 04:30N 36°19' E 017°05'2413.6
2017-Sep-16 02:43N 36°19' E 017°35'313.8
2017-Sep-16 02:30N 36°19' E 017°39'2813.5
2017-Sep-16 00:27N 36°19' E 018°13'613.2
2017-Sep-16 00:00N 36°19' E 018°20'813.0
2017-Sep-15 23:25N 36°19' E 018°30'1113.0
2017-Sep-15 22:34N 36°19' E 018°43'113.1
2017-Sep-15 22:30N 36°19' E 018°44'16712.8
2017-Sep-15 09:28N 36°18' E 022°11'1512.6
2017-Sep-15 08:15N 36°20' E 022°30'13312.0
2017-Sep-14 21:09N 37°54' E 024°30'3713.3
2017-Sep-14 18:20N 38°25' E 024°55'  
2017-Sep-12 06:49N 42°43' E 029°01'413.0
2017-Sep-12 06:30N 42°48' E 029°00'713.1
2017-Sep-12 06:00N 42°54' E 029°00'713.1
2017-Sep-12 05:30N 43°01' E 029°01'612.2
2017-Sep-12 05:00N 43°07' E 029°00'612.1
2017-Sep-12 04:30N 43°13' E 029°00'712.1
2017-Sep-12 03:56N 43°20' E 029°00'512.1
2017-Sep-12 03:30N 43°25' E 029°00'612.0
2017-Sep-12 03:00N 43°31' E 028°60'611.9
2017-Sep-12 02:30N 43°37' E 028°59'611.9
2017-Sep-12 02:00N 43°42' E 028°56'611.9
2017-Sep-12 01:30N 43°48' E 028°53'611.6
2017-Sep-12 01:00N 43°53' E 028°51'511.0
2017-Sep-12 00:30N 43°59' E 028°49'510.4
2017-Sep-12 00:00N 44°03' E 028°44'4 8.9
2017-Sep-11 23:30N 44°07' E 028°42'2 4.6
2017-Sep-11 23:00N 44°09' E 028°40'0 0.8
2017-Sep-11 22:30N 44°09' E 028°40'0 0.0
2017-Sep-11 22:00N 44°09' E 028°40'0 0.0
2017-Sep-11 21:30N 44°09' E 028°40'0 0.0
2017-Sep-11 21:00N 44°09' E 028°40'0 0.0
2017-Sep-11 20:30N 44°09' E 028°40'0 0.0
2017-Sep-11 20:00N 44°09' E 028°40'0 0.0
2017-Sep-11 19:30N 44°09' E 028°40'0 0.0
2017-Sep-11 19:00N 44°09' E 028°40'0 0.0
2017-Sep-11 18:30N 44°09' E 028°40'0 0.0
2017-Sep-11 17:54N 44°09' E 028°40'0 0.0
2017-Sep-11 17:30N 44°09' E 028°40'0 0.0
2017-Sep-11 16:54N 44°09' E 028°40'0 0.0
2017-Sep-11 16:30N 44°09' E 028°40'0 0.0
2017-Sep-11 16:00N 44°09' E 028°40'0 0.0
2017-Sep-11 15:30N 44°09' E 028°40'0 0.0
2017-Sep-11 15:00N 44°09' E 028°40'0 0.0
2017-Sep-11 14:27N 44°09' E 028°40'0 0.0
2017-Sep-11 13:57N 44°09' E 028°40'0 0.0
2017-Sep-11 13:24N 44°09' E 028°40'0 0.0
2017-Sep-11 12:57N 44°09' E 028°40'0 0.0
2017-Sep-11 12:30N 44°09' E 028°40'0 0.0
2017-Sep-11 12:00N 44°09' E 028°40'0 0.0
2017-Sep-11 11:30N 44°09' E 028°40'0 0.0
2017-Sep-11 11:00N 44°09' E 028°40'0 0.0
2017-Sep-11 10:30N 44°09' E 028°40'0 0.0
2017-Sep-11 10:00N 44°09' E 028°40'0 0.0
2017-Sep-11 09:30N 44°09' E 028°40'0 0.0
2017-Sep-11 09:00N 44°09' E 028°40'0 0.0
2017-Sep-11 08:30N 44°09' E 028°40'0 0.0
2017-Sep-11 08:00N 44°09' E 028°40'0 0.0
2017-Sep-11 07:27N 44°09' E 028°40'0 0.0
2017-Sep-11 07:00N 44°09' E 028°40'0 0.0
2017-Sep-11 06:30N 44°09' E 028°40'0 0.0
2017-Sep-11 06:00N 44°09' E 028°40'0 0.0
2017-Sep-11 05:30N 44°09' E 028°40'0 0.0
2017-Sep-11 05:00N 44°09' E 028°40'0 0.0
2017-Sep-11 04:27N 44°09' E 028°40'0 0.0
2017-Sep-11 04:00N 44°09' E 028°40'0 0.0
2017-Sep-11 03:30N 44°09' E 028°40'0 0.0
2017-Sep-11 03:00N 44°09' E 028°40'0 0.0
2017-Sep-11 02:30N 44°09' E 028°40'0 0.0
2017-Sep-11 01:57N 44°09' E 028°40'0 0.0
2017-Sep-11 01:30N 44°09' E 028°40'0 0.0
2017-Sep-11 01:00N 44°09' E 028°40'0 0.0
2017-Sep-11 00:30N 44°09' E 028°40'0 0.0
2017-Sep-11 00:00N 44°09' E 028°40'0 0.0
2017-Sep-10 23:27N 44°09' E 028°40'0 0.0
2017-Sep-10 23:00N 44°09' E 028°40'0 0.0
2017-Sep-10 22:30N 44°09' E 028°40'0 0.0
2017-Sep-10 22:00N 44°09' E 028°40'0 0.0
2017-Sep-10 21:30N 44°09' E 028°40'  
Track history (hours):
 
Tides and Currents Weather Stations Pressure Air Temp Water Temp Dewpoint Dewpoint Depression Visibility Wind Speed Wind Dir Waves Ship Positions

Zhen Zhu Hai

Last reported at 2017-Sep-20 21:00 UTC. Time now 2017-Sep-20 22:12 UTC.
Position N 38°40' W 009°51'.

Length 180 m; draft 9.9 m.

Type: Cargo ship. MMSI: 477524900.

Date/timePositionNaut miles runAvg speedWind from/ knotsBaromVisibWave heightAir tempDewpointWater temp
2017-Sep-20 21:00N 38°40' W 009°51'611.5
2017-Sep-20 20:30N 38°35' W 009°48'611.3
2017-Sep-20 20:00N 38°30' W 009°47'611.7
2017-Sep-20 19:30N 38°24' W 009°45'611.8
2017-Sep-20 19:00N 38°18' W 009°43'611.9
2017-Sep-20 18:30N 38°12' W 009°42'611.7
2017-Sep-20 18:00N 38°07' W 009°40'611.7
2017-Sep-20 17:30N 38°01' W 009°39'611.7
2017-Sep-20 17:00N 37°55' W 009°38'611.6
2017-Sep-20 16:30N 37°49' W 009°36'611.1
2017-Sep-20 16:00N 37°44' W 009°35'611.1
2017-Sep-20 15:28N 37°38' W 009°33'511.8
2017-Sep-20 15:00N 37°33' W 009°32'1211.7
2017-Sep-20 13:59N 37°21' W 009°28'611.9
2017-Sep-20 13:30N 37°16' W 009°26'612.1
2017-Sep-20 13:00N 37°10' W 009°24'612.5
2017-Sep-20 12:30N 37°04' W 009°23'1012.7
2017-Sep-20 11:44N 36°54' W 009°20'412.5
2017-Sep-20 11:23N 36°51' W 009°17'512.5
2017-Sep-20 11:00N 36°47' W 009°12'812.1
2017-Sep-20 10:19N 36°43' W 009°03'412.1
2017-Sep-20 09:58N 36°42' W 008°58'612.5
2017-Sep-20 09:30N 36°40' W 008°52'612.7
2017-Sep-20 09:00N 36°37' W 008°44'712.7
2017-Sep-20 08:29N 36°35' W 008°37'612.9
2017-Sep-20 08:00N 36°33' W 008°29'23 9.7
2017-Sep-20 05:37N 36°27' W 008°02'413.3
2017-Sep-20 05:20N 36°25' W 007°57'413.3
2017-Sep-20 05:00N 36°24' W 007°52'4313.0
2017-Sep-20 01:44N 36°11' W 007°02'313.0
2017-Sep-20 01:30N 36°10' W 006°59'1613.2
2017-Sep-20 00:20N 36°05' W 006°40'1213.6
2017-Sep-19 23:27N 36°01' W 006°26'613.9
2017-Sep-19 22:59N 35°60' W 006°19'714.0
2017-Sep-19 22:29N 35°58' W 006°10'714.2
2017-Sep-19 22:00N 35°58' W 006°02'814.2
2017-Sep-19 21:28N 35°58' W 005°52'1313.2
2017-Sep-19 20:29N 35°58' W 005°36'510.9
2017-Sep-19 20:01N 35°59' W 005°30'5 9.3
2017-Sep-19 19:31N 36°00' W 005°25'4 8.6
2017-Sep-19 19:01N 36°01' W 005°19'5 9.7
2017-Sep-19 18:31N 36°02' W 005°13'21612.1
2017-Sep-19 00:39N 36°37' W 000°49'213.0
2017-Sep-19 00:30N 36°38' W 000°47'3812.6
2017-Sep-18 21:31N 36°44' W 000°00'012.4
2017-Sep-18 21:30N 36°44' W 000°00'612.5
2017-Sep-18 21:00N 36°45' E 000°08'612.5
2017-Sep-18 20:30N 36°46' E 000°15'1012.3
2017-Sep-18 19:39N 36°47' E 000°28'312.2
2017-Sep-18 19:26N 36°48' E 000°32'1512.4
2017-Sep-18 18:15N 36°51' E 000°49'512.4
2017-Sep-18 17:53N 36°52' E 000°55'512.3
2017-Sep-18 17:30N 36°52' E 001°01'612.1
2017-Sep-18 17:00N 36°53' E 001°08'612.2
2017-Sep-18 16:30N 36°54' E 001°16'812.4
2017-Sep-18 15:49N 36°55' E 001°26'13212.3
2017-Sep-18 05:05N 37°15' E 004°10'112.2
2017-Sep-18 05:00N 37°15' E 004°11'612.3
2017-Sep-18 04:30N 37°15' E 004°19'3012.7
2017-Sep-18 02:11N 37°19' E 004°56'313.0
2017-Sep-18 01:57N 37°19' E 004°60'612.9
2017-Sep-18 01:27N 37°20' E 005°08'612.8
2017-Sep-18 00:58N 37°20' E 005°15'29212.9
2017-Sep-17 02:20N 37°22' E 011°23'513.4
2017-Sep-17 01:59N 37°20' E 011°28'713.6
2017-Sep-17 01:29N 37°17' E 011°35'613.5
2017-Sep-17 01:00N 37°14' E 011°43'713.5
2017-Sep-17 00:30N 37°11' E 011°50'713.6
2017-Sep-17 00:00N 37°08' E 011°58'713.6
2017-Sep-16 23:30N 37°05' E 012°06'713.2
2017-Sep-16 22:58N 37°03' E 012°14'612.9
2017-Sep-16 22:30N 37°01' E 012°21'1712.7
2017-Sep-16 21:09N 36°56' E 012°42'212.7
2017-Sep-16 21:00N 36°56' E 012°44'612.9
2017-Sep-16 20:30N 36°54' E 012°52'713.0
2017-Sep-16 20:00N 36°52' E 012°60'612.9
2017-Sep-16 19:30N 36°50' E 013°07'612.9
2017-Sep-16 19:00N 36°48' E 013°15'612.8
2017-Sep-16 18:30N 36°46' E 013°23'612.6
2017-Sep-16 18:00N 36°44' E 013°30'612.4
2017-Sep-16 17:30N 36°42' E 013°37'612.5
2017-Sep-16 17:00N 36°40' E 013°45'612.7
2017-Sep-16 16:30N 36°38' E 013°52'612.8
2017-Sep-16 16:00N 36°35' E 013°60'612.6
2017-Sep-16 15:30N 36°34' E 014°07'612.4
2017-Sep-16 15:00N 36°32' E 014°14'612.7
2017-Sep-16 14:30N 36°30' E 014°22'713.0
2017-Sep-16 14:00N 36°28' E 014°30'612.9
2017-Sep-16 13:30N 36°26' E 014°37'612.7
2017-Sep-16 13:00N 36°24' E 014°45'612.7
2017-Sep-16 12:30N 36°22' E 014°52'612.7
2017-Sep-16 12:00N 36°20' E 015°00'612.6
2017-Sep-16 11:30N 36°19' E 015°08'612.8
2017-Sep-16 11:00N 36°19' E 015°16'713.4
2017-Sep-16 10:30N 36°19' E 015°24'713.8
2017-Sep-16 10:00N 36°19' E 015°33'713.9
2017-Sep-16 09:30N 36°20' E 015°41'714.0
2017-Sep-16 09:00N 36°19' E 015°50'713.9
2017-Sep-16 08:30N 36°19' E 015°59'713.6
2017-Sep-16 08:00N 36°19' E 016°07'713.4
2017-Sep-16 07:31N 36°19' E 016°15'713.3
2017-Sep-16 07:00N 36°19' E 016°24'613.2
2017-Sep-16 06:31N 36°19' E 016°32'713.3
2017-Sep-16 06:00N 36°19' E 016°40'713.3
2017-Sep-16 05:27N 36°20' E 016°49'713.3
2017-Sep-16 04:55N 36°19' E 016°58'613.4
2017-Sep-16 04:30N 36°19' E 017°05'2413.6
2017-Sep-16 02:43N 36°19' E 017°35'313.8
2017-Sep-16 02:30N 36°19' E 017°39'2813.5
2017-Sep-16 00:27N 36°19' E 018°13'613.2
2017-Sep-16 00:00N 36°19' E 018°20'813.0
2017-Sep-15 23:25N 36°19' E 018°30'1113.0
2017-Sep-15 22:34N 36°19' E 018°43'113.1
2017-Sep-15 22:30N 36°19' E 018°44'16712.8
2017-Sep-15 09:28N 36°18' E 022°11'1512.6
2017-Sep-15 08:15N 36°20' E 022°30'13312.0
2017-Sep-14 21:09N 37°54' E 024°30'3713.3
2017-Sep-14 18:20N 38°25' E 024°55'  
2017-Sep-12 06:49N 42°43' E 029°01'413.0
2017-Sep-12 06:30N 42°48' E 029°00'713.1
2017-Sep-12 06:00N 42°54' E 029°00'713.1
2017-Sep-12 05:30N 43°01' E 029°01'612.2
2017-Sep-12 05:00N 43°07' E 029°00'612.1
2017-Sep-12 04:30N 43°13' E 029°00'712.1
2017-Sep-12 03:56N 43°20' E 029°00'512.1
2017-Sep-12 03:30N 43°25' E 029°00'612.0
2017-Sep-12 03:00N 43°31' E 028°60'611.9
2017-Sep-12 02:30N 43°37' E 028°59'611.9
2017-Sep-12 02:00N 43°42' E 028°56'611.9
2017-Sep-12 01:30N 43°48' E 028°53'611.6
2017-Sep-12 01:00N 43°53' E 028°51'511.0
2017-Sep-12 00:30N 43°59' E 028°49'510.4
2017-Sep-12 00:00N 44°03' E 028°44'4 8.9
2017-Sep-11 23:30N 44°07' E 028°42'2 4.6
2017-Sep-11 23:00N 44°09' E 028°40'0 0.8
2017-Sep-11 22:30N 44°09' E 028°40'0 0.0
2017-Sep-11 22:00N 44°09' E 028°40'0 0.0
2017-Sep-11 21:30N 44°09' E 028°40'0 0.0
2017-Sep-11 21:00N 44°09' E 028°40'0 0.0
2017-Sep-11 20:30N 44°09' E 028°40'0 0.0
2017-Sep-11 20:00N 44°09' E 028°40'0 0.0
2017-Sep-11 19:30N 44°09' E 028°40'0 0.0
2017-Sep-11 19:00N 44°09' E 028°40'0 0.0
2017-Sep-11 18:30N 44°09' E 028°40'0 0.0
2017-Sep-11 17:54N 44°09' E 028°40'0 0.0
2017-Sep-11 17:30N 44°09' E 028°40'0 0.0
2017-Sep-11 16:54N 44°09' E 028°40'0 0.0
2017-Sep-11 16:30N 44°09' E 028°40'0 0.0
2017-Sep-11 16:00N 44°09' E 028°40'0 0.0
2017-Sep-11 15:30N 44°09' E 028°40'0 0.0
2017-Sep-11 15:00N 44°09' E 028°40'0 0.0
2017-Sep-11 14:27N 44°09' E 028°40'0 0.0
2017-Sep-11 13:57N 44°09' E 028°40'0 0.0
2017-Sep-11 13:24N 44°09' E 028°40'0 0.0
2017-Sep-11 12:57N 44°09' E 028°40'0 0.0
2017-Sep-11 12:30N 44°09' E 028°40'0 0.0
2017-Sep-11 12:00N 44°09' E 028°40'0 0.0
2017-Sep-11 11:30N 44°09' E 028°40'0 0.0
2017-Sep-11 11:00N 44°09' E 028°40'0 0.0
2017-Sep-11 10:30N 44°09' E 028°40'0 0.0
2017-Sep-11 10:00N 44°09' E 028°40'0 0.0
2017-Sep-11 09:30N 44°09' E 028°40'0 0.0
2017-Sep-11 09:00N 44°09' E 028°40'0 0.0
2017-Sep-11 08:30N 44°09' E 028°40'0 0.0
2017-Sep-11 08:00N 44°09' E 028°40'0 0.0
2017-Sep-11 07:27N 44°09' E 028°40'0 0.0
2017-Sep-11 07:00N 44°09' E 028°40'0 0.0
2017-Sep-11 06:30N 44°09' E 028°40'0 0.0
2017-Sep-11 06:00N 44°09' E 028°40'0 0.0
2017-Sep-11 05:30N 44°09' E 028°40'0 0.0
2017-Sep-11 05:00N 44°09' E 028°40'0 0.0
2017-Sep-11 04:27N 44°09' E 028°40'0 0.0
2017-Sep-11 04:00N 44°09' E 028°40'0 0.0
2017-Sep-11 03:30N 44°09' E 028°40'0 0.0
2017-Sep-11 03:00N 44°09' E 028°40'0 0.0
2017-Sep-11 02:30N 44°09' E 028°40'0 0.0
2017-Sep-11 01:57N 44°09' E 028°40'0 0.0
2017-Sep-11 01:30N 44°09' E 028°40'0 0.0
2017-Sep-11 01:00N 44°09' E 028°40'0 0.0
2017-Sep-11 00:30N 44°09' E 028°40'0 0.0
2017-Sep-11 00:00N 44°09' E 028°40'0 0.0
2017-Sep-10 23:27N 44°09' E 028°40'0 0.0
2017-Sep-10 23:00N 44°09' E 028°40'0 0.0
2017-Sep-10 22:30N 44°09' E 028°40'0 0.0
2017-Sep-10 22:00N 44°09' E 028°40'0 0.0
2017-Sep-10 21:30N 44°09' E 028°40'  

Dump ship's entire track history